Time;durP1;ratioP1;P1;durP2;ratioP2;P2;SDS_P1;SDS_P2;PMS_P1;PMS_P2;Temp;Humidity;BMP_temperature;BMP_pressure;BME280_temperature;BME280_humidity;BME280_pressure;Samples;Min_cycle;Max_cycle;Signal;HPM_P1;HPM_P2
2022/04/19 00:01:10;;;;;;;5.47;3.57;;;6.00;97.30;;;;;;4996564;28;20419;-80
2022/04/19 00:03:36;;;;;;;5.00;3.53;;;6.00;97.30;;;;;;5013603;28;21147;-79
2022/04/19 00:06:02;;;;;;;5.50;3.87;;;6.00;97.30;;;;;;4997107;28;20428;-79
2022/04/19 00:08:27;;;;;;;4.33;3.30;;;6.00;97.30;;;;;;4996547;28;20182;-79
2022/04/19 00:10:53;;;;;;;5.27;3.60;;;6.00;97.30;;;;;;4996952;28;20192;-80
2022/04/19 00:13:18;;;;;;;6.50;4.20;;;6.00;97.30;;;;;;4996502;28;20178;-79
2022/04/19 00:15:45;;;;;;;6.60;4.20;;;6.10;97.30;;;;;;4996481;28;20210;-80
2022/04/19 00:18:11;;;;;;;5.30;3.10;;;6.10;97.30;;;;;;4997674;28;20174;-80
2022/04/19 00:20:39;;;;;;;5.10;3.70;;;6.10;97.30;;;;;;4997801;28;20416;-79
2022/04/19 00:23:12;;;;;;;4.40;3.10;;;6.10;97.30;;;;;;4996738;28;20418;-79
2022/04/19 00:25:39;;;;;;;3.97;3.37;;;6.10;97.30;;;;;;4996229;28;20467;-79
2022/04/19 00:28:05;;;;;;;5.30;3.50;;;6.10;97.30;;;;;;4996579;28;20417;-81
2022/04/19 00:30:31;;;;;;;5.40;3.90;;;6.10;97.30;;;;;;4996346;28;20487;-79
2022/04/19 00:32:57;;;;;;;8.13;3.80;;;6.10;97.30;;;;;;4996559;28;20189;-80
2022/04/19 00:35:24;;;;;;;3.47;3.10;;;6.10;97.30;;;;;;4996381;28;20464;-80
2022/04/19 00:37:49;;;;;;;5.27;3.83;;;6.10;97.30;;;;;;5012840;28;20580;-78
2022/04/19 00:40:15;;;;;;;5.90;3.60;;;6.10;97.30;;;;;;4996679;28;20471;-79
2022/04/19 00:42:41;;;;;;;5.23;3.70;;;6.00;97.30;;;;;;4995948;28;20424;-80
2022/04/19 00:45:07;;;;;;;5.73;3.43;;;6.00;97.30;;;;;;4996112;28;20452;-80
2022/04/19 00:47:33;;;;;;;5.60;3.50;;;5.90;97.30;;;;;;4996097;28;20182;-80
2022/04/19 00:50:04;;;;;;;5.47;3.63;;;5.80;97.30;;;;;;4995509;28;20186;-80
2022/04/19 00:52:31;;;;;;;4.13;3.10;;;5.70;97.30;;;;;;4995593;28;20419;-80
2022/04/19 00:54:59;;;;;;;8.57;3.37;;;5.70;97.30;;;;;;4996742;28;20834;-79
2022/04/19 00:57:25;;;;;;;8.80;3.80;;;5.60;97.30;;;;;;4995647;28;20412;-80
2022/04/19 00:59:58;;;;;;;5.60;3.60;;;5.60;97.30;;;;;;4995520;28;20425;-80
2022/04/19 01:02:24;;;;;;;5.40;3.80;;;5.50;97.30;;;;;;4994425;28;20481;-81
2022/04/19 01:04:51;;;;;;;7.37;4.10;;;5.50;97.30;;;;;;4995402;28;20441;-79
2022/04/19 01:07:18;;;;;;;5.57;3.60;;;5.40;97.30;;;;;;4995497;28;20413;-79
2022/04/19 01:09:45;;;;;;;6.30;3.87;;;5.30;97.30;;;;;;4994722;28;20431;-80
2022/04/19 01:14:56;;;;;;;4.33;3.33;;;5.30;97.30;;;;;;4997279;28;20464;-80
2022/04/19 01:17:23;;;;;;;5.97;3.30;;;5.20;97.30;;;;;;4995915;28;20421;-81
2022/04/19 01:19:49;;;;;;;4.30;3.30;;;5.20;97.30;;;;;;4996203;28;20413;-80
2022/04/19 01:22:14;;;;;;;5.57;3.50;;;5.20;97.30;;;;;;4996505;28;20507;-80
2022/04/19 01:24:43;;;;;;;6.83;4.03;;;5.30;97.30;;;;;;4996862;28;20445;-81
2022/04/19 01:27:09;;;;;;;6.50;3.33;;;5.30;97.30;;;;;;4996999;28;20225;-81
2022/04/19 01:29:35;;;;;;;6.30;3.73;;;5.30;97.30;;;;;;4995856;28;20424;-80
2022/04/19 01:32:06;;;;;;;5.87;3.30;;;5.30;97.30;;;;;;4996270;28;20967;-80
2022/04/19 01:34:32;;;;;;;5.30;3.30;;;5.30;97.30;;;;;;4994588;28;20465;-80
2022/04/19 01:36:58;;;;;;;4.50;3.20;;;5.20;97.30;;;;;;5012297;28;20411;-79
2022/04/19 01:42:08;;;;;;;4.37;3.07;;;5.20;97.30;;;;;;4996783;28;20218;-80
2022/04/19 01:44:36;;;;;;;6.77;2.93;;;5.10;97.30;;;;;;4996239;28;20440;-79
2022/04/19 01:47:03;;;;;;;5.80;3.10;;;5.10;97.30;;;;;;5011894;28;20429;-78
2022/04/19 01:49:28;;;;;;;5.57;3.10;;;5.10;97.30;;;;;;4995731;28;20572;-79
2022/04/19 01:51:54;;;;;;;3.70;3.00;;;5.10;97.30;;;;;;4995596;28;20445;-79
2022/04/19 01:54:19;;;;;;;2.97;2.67;;;5.10;97.30;;;;;;4995755;28;20194;-79
2022/04/19 01:56:45;;;;;;;4.87;3.10;;;5.10;97.30;;;;;;4995010;28;20189;-80
2022/04/19 01:59:12;;;;;;;5.77;3.10;;;5.20;97.30;;;;;;4995776;28;20240;-80
2022/04/19 02:01:38;;;;;;;3.97;3.07;;;5.10;97.30;;;;;;4995281;28;20436;-79
2022/04/19 02:04:03;;;;;;;5.40;3.10;;;5.20;97.30;;;;;;4995299;28;20441;-78
2022/04/19 02:06:30;;;;;;;3.90;2.90;;;5.10;97.30;;;;;;4996641;28;20252;-79
2022/04/19 02:08:56;;;;;;;8.10;3.10;;;5.10;97.30;;;;;;4996136;28;20296;-79
2022/04/19 02:11:24;;;;;;;3.20;2.50;;;5.20;97.30;;;;;;4995473;28;20480;-79
2022/04/19 02:13:50;;;;;;;3.80;2.83;;;5.20;97.30;;;;;;4994111;28;20413;-79
2022/04/19 02:16:17;;;;;;;5.63;3.60;;;5.30;97.30;;;;;;4996318;28;20760;-79
2022/04/19 02:18:43;;;;;;;5.17;2.93;;;5.30;97.30;;;;;;4995373;28;20802;-79
2022/04/19 02:21:09;;;;;;;9.63;2.77;;;5.30;97.30;;;;;;4996244;28;20409;-80
2022/04/19 02:23:35;;;;;;;5.70;3.20;;;5.30;97.30;;;;;;4996410;28;20417;-79
2022/04/19 02:26:01;;;;;;;3.23;2.70;;;5.30;97.30;;;;;;5011145;28;20375;-80
2022/04/19 02:28:27;;;;;;;3.50;2.70;;;5.30;97.30;;;;;;4995134;28;20463;-79
2022/04/19 02:30:53;;;;;;;3.70;2.90;;;5.30;97.30;;;;;;4996075;28;20467;-79
2022/04/19 02:33:18;;;;;;;4.40;2.70;;;5.30;97.30;;;;;;4995143;28;20861;-80
2022/04/19 02:35:44;;;;;;;4.53;3.23;;;5.30;97.20;;;;;;4994843;28;20297;-79
2022/04/19 02:38:10;;;;;;;4.70;3.10;;;5.30;97.20;;;;;;4994543;28;20719;-78
2022/04/19 02:40:35;;;;;;;4.27;2.73;;;5.30;97.20;;;;;;4993733;28;20185;-78
2022/04/19 02:43:01;;;;;;;6.00;2.90;;;5.40;97.20;;;;;;4994783;28;20657;-80
2022/04/19 02:45:26;;;;;;;4.30;2.93;;;5.40;97.30;;;;;;4994364;28;20213;-79
2022/04/19 02:48:06;;;;;;;4.90;2.93;;;5.30;97.30;;;;;;4995004;28;20174;-79
2022/04/19 02:50:33;;;;;;;5.47;3.10;;;5.30;97.30;;;;;;4994915;28;20244;-80
2022/04/19 02:53:03;;;;;;;4.30;3.00;;;5.30;97.30;;;;;;4995038;28;20512;-79
2022/04/19 02:55:29;;;;;;;5.83;3.40;;;5.30;97.30;;;;;;4994564;28;20481;-80
2022/04/19 02:57:55;;;;;;;4.80;2.93;;;5.30;97.30;;;;;;4994711;28;20413;-79
2022/04/19 03:00:22;;;;;;;4.57;2.60;;;5.20;97.30;;;;;;4994314;28;20209;-80
2022/04/19 03:02:48;;;;;;;4.70;3.00;;;5.20;97.30;;;;;;5010031;28;20453;-78
2022/04/19 03:05:13;;;;;;;3.87;2.70;;;5.20;97.30;;;;;;4994550;28;20453;-79
2022/04/19 03:07:39;;;;;;;4.83;2.80;;;5.20;97.30;;;;;;4994144;28;20182;-79
2022/04/19 03:10:06;;;;;;;4.67;2.90;;;5.20;97.30;;;;;;4995111;28;20178;-79
2022/04/19 03:12:31;;;;;;;3.63;2.80;;;5.10;97.30;;;;;;4994157;28;20190;-80
2022/04/19 03:14:57;;;;;;;5.77;2.83;;;5.10;97.30;;;;;;4993982;28;20835;-79
2022/04/19 03:17:23;;;;;;;8.00;3.30;;;5.10;97.30;;;;;;4994529;28;20217;-80
2022/04/19 03:19:48;;;;;;;8.20;3.10;;;5.10;97.30;;;;;;4994430;28;20617;-79
2022/04/19 03:22:14;;;;;;;6.23;3.13;;;5.20;97.30;;;;;;4994505;28;20232;-79
2022/04/19 03:27:41;;;;;;;5.63;3.20;;;5.20;97.30;;;;;;4999467;28;20169;-80
2022/04/19 03:30:09;;;;;;;3.97;3.00;;;5.20;97.30;;;;;;4998063;28;20417;-79
2022/04/19 03:32:36;;;;;;;8.57;3.27;;;5.30;97.30;;;;;;4997674;28;20487;-80
2022/04/19 03:35:02;;;;;;;5.13;3.50;;;5.30;97.30;;;;;;4997425;28;20471;-80
2022/04/19 03:37:29;;;;;;;4.90;3.47;;;5.40;97.30;;;;;;4998025;28;20409;-79
2022/04/19 03:39:54;;;;;;;6.80;3.30;;;5.40;97.30;;;;;;4997524;28;20425;-79
2022/04/19 03:42:20;;;;;;;5.40;3.50;;;5.40;97.30;;;;;;4998787;28;21191;-80
2022/04/19 03:44:45;;;;;;;4.30;3.00;;;5.40;97.30;;;;;;5013613;28;20217;-79
2022/04/19 03:47:11;;;;;;;4.10;3.40;;;5.30;97.30;;;;;;4997890;28;20273;-79
2022/04/19 03:49:38;;;;;;;6.53;3.77;;;5.30;97.30;;;;;;4997376;28;20221;-79
2022/04/19 03:52:04;;;;;;;7.63;3.97;;;5.30;97.30;;;;;;4997041;28;20551;-80
2022/04/19 03:54:34;;;;;;;6.20;3.70;;;5.30;97.30;;;;;;4999066;28;20452;-79
2022/04/19 03:57:07;;;;;;;5.80;3.40;;;5.30;97.30;;;;;;5013616;28;20428;-79
2022/04/19 03:59:35;;;;;;;6.63;3.97;;;5.30;97.30;;;;;;4997335;28;20966;-80
2022/04/19 04:02:02;;;;;;;5.10;3.43;;;5.30;97.30;;;;;;5014109;28;20456;-80
2022/04/19 04:04:30;;;;;;;4.80;3.33;;;5.30;97.30;;;;;;4997126;28;20502;-80
2022/04/19 04:07:00;;;;;;;5.30;2.97;;;5.30;97.30;;;;;;4996685;28;20486;-78
2022/04/19 04:09:32;;;;;;;6.00;4.20;;;5.20;97.30;;;;;;4998159;28;20417;-79
2022/04/19 04:12:02;;;;;;;5.93;4.00;;;5.20;97.30;;;;;;4997972;28;20422;-80
2022/04/19 04:14:31;;;;;;;5.67;2.93;;;5.20;97.30;;;;;;4998717;28;20986;-81
2022/04/19 04:16:58;;;;;;;4.23;3.17;;;5.20;97.30;;;;;;4996900;28;20923;-81
2022/04/19 04:19:29;;;;;;;4.80;2.50;;;5.20;97.30;;;;;;4996744;28;21002;-82
2022/04/19 04:21:54;;;;;;;5.40;2.80;;;5.30;97.30;;;;;;4996130;28;20417;-79
2022/04/19 04:24:20;;;;;;;4.23;2.73;;;5.30;97.30;;;;;;4996748;28;20459;-79
2022/04/19 04:26:46;;;;;;;4.60;2.80;;;5.30;97.30;;;;;;4996322;28;20327;-79
2022/04/19 04:29:11;;;;;;;4.50;2.40;;;5.30;97.30;;;;;;4993269;28;20449;-79
2022/04/19 04:31:38;;;;;;;5.23;2.90;;;5.30;97.30;;;;;;4994743;28;20186;-80
2022/04/19 04:34:04;;;;;;;4.33;2.60;;;5.40;97.30;;;;;;4984136;28;20206;-80
2022/04/19 04:36:30;;;;;;;8.47;3.30;;;5.40;97.30;;;;;;5000322;28;20425;-81
2022/04/19 04:38:55;;;;;;;5.77;2.90;;;5.40;97.30;;;;;;4995307;28;21065;-80
2022/04/19 04:41:21;;;;;;;3.57;2.60;;;5.40;97.30;;;;;;4996119;28;20193;-82
2022/04/19 04:43:46;;;;;;;6.83;3.63;;;5.40;97.30;;;;;;4996093;28;20182;-80
2022/04/19 04:51:40;;;;;;;4.17;3.00;;;5.40;97.30;;;;;;4996993;28;20408;-82
2022/04/19 04:54:21;;;;;;;5.57;3.17;;;5.40;97.30;;;;;;4997375;28;20432;-81
2022/04/19 04:56:52;;;;;;;7.30;3.43;;;5.40;97.30;;;;;;4995729;28;20542;-81
2022/04/19 04:59:22;;;;;;;7.27;3.47;;;5.40;97.30;;;;;;4994071;28;20417;-81
2022/04/19 05:01:48;;;;;;;7.50;3.03;;;5.40;97.30;;;;;;4992992;28;21124;-81
2022/04/19 05:04:18;;;;;;;8.73;3.27;;;5.40;97.30;;;;;;4995920;28;20436;-80
2022/04/19 05:06:43;;;;;;;5.20;2.67;;;5.50;97.30;;;;;;4995323;28;20193;-82
2022/04/19 05:09:09;;;;;;;7.13;2.90;;;5.50;97.30;;;;;;4994846;28;20417;-81
2022/04/19 05:11:35;;;;;;;6.13;3.17;;;5.50;97.30;;;;;;4979805;28;20213;-81
2022/04/19 05:14:01;;;;;;;7.13;2.90;;;5.60;97.30;;;;;;4974747;28;20194;-81
2022/04/19 05:16:28;;;;;;;4.93;2.87;;;5.60;97.30;;;;;;4975072;28;20170;-80
2022/04/19 05:18:54;;;;;;;5.00;2.63;;;5.60;97.30;;;;;;4976460;28;20701;-82
2022/04/19 05:21:20;;;;;;;4.37;3.40;;;5.70;97.30;;;;;;4975348;28;21200;-81
2022/04/19 05:23:46;;;;;;;8.53;2.77;;;5.80;97.30;;;;;;4975062;28;20417;-81
2022/04/19 05:26:11;;;;;;;5.03;2.80;;;5.80;96.80;;;;;;4977472;28;20625;-82
2022/04/19 05:28:37;;;;;;;5.07;2.87;;;5.80;96.50;;;;;;4966097;28;20441;-82
2022/04/19 05:31:03;;;;;;;4.70;2.97;;;5.90;96.80;;;;;;4962426;28;20239;-81
2022/04/19 05:33:30;;;;;;;5.10;2.53;;;5.90;96.50;;;;;;4971570;28;20186;-81
2022/04/19 05:35:56;;;;;;;4.23;2.60;;;6.00;96.50;;;;;;5002997;28;20464;-81
2022/04/19 05:38:21;;;;;;;6.37;2.80;;;6.00;96.20;;;;;;4975706;28;20499;-81
2022/04/19 05:40:47;;;;;;;8.00;3.03;;;6.00;96.00;;;;;;4969075;28;20477;-80
2022/04/19 05:43:13;;;;;;;6.50;2.87;;;6.10;96.00;;;;;;4975623;28;20183;-80
2022/04/19 05:45:39;;;;;;;4.67;3.37;;;6.10;95.90;;;;;;4973378;28;20205;-78
2022/04/19 05:48:05;;;;;;;3.77;2.73;;;6.10;95.60;;;;;;4953971;28;20194;-78
2022/04/19 05:50:39;;;;;;;4.30;2.73;;;6.20;95.20;;;;;;4953434;29;20423;-78
2022/04/19 05:53:05;;;;;;;4.37;2.90;;;6.20;95.40;;;;;;4968530;28;20429;-78
2022/04/19 05:55:32;;;;;;;3.80;2.80;;;6.30;95.10;;;;;;4972035;28;20581;-79
2022/04/19 05:57:58;;;;;;;5.40;3.20;;;6.40;95.00;;;;;;4972376;28;20189;-77
2022/04/19 06:00:24;;;;;;;4.03;2.87;;;6.30;94.50;;;;;;4972215;28;20464;-77
2022/04/19 06:05:34;;;;;;;4.97;2.97;;;6.40;94.90;;;;;;4973922;28;20779;-76
2022/04/19 06:08:00;;;;;;;3.90;2.90;;;6.40;94.90;;;;;;4971389;28;20464;-77
2022/04/19 06:10:25;;;;;;;4.77;3.30;;;6.40;95.00;;;;;;4970895;28;20552;-77
2022/04/19 06:12:51;;;;;;;6.00;3.50;;;6.40;94.40;;;;;;4971070;28;20428;-78
2022/04/19 06:15:16;;;;;;;8.30;2.90;;;6.40;94.50;;;;;;4973254;28;20210;-77
2022/04/19 06:17:42;;;;;;;5.50;3.60;;;6.50;94.80;;;;;;4971229;28;20183;-78
2022/04/19 06:20:09;;;;;;;5.40;3.23;;;6.60;94.40;;;;;;4970979;28;20178;-78
2022/04/19 06:22:35;;;;;;;3.93;2.80;;;6.60;94.30;;;;;;4972571;28;20944;-77
2022/04/19 06:25:01;;;;;;;4.50;3.00;;;6.70;94.50;;;;;;4972204;28;20477;-77
2022/04/19 06:27:27;;;;;;;5.10;2.93;;;6.70;94.30;;;;;;4972136;28;20288;-77
2022/04/19 06:29:53;;;;;;;5.23;3.40;;;6.70;94.20;;;;;;4971001;28;20425;-78
2022/04/19 06:32:22;;;;;;;5.50;3.10;;;6.80;94.00;;;;;;4972001;28;20418;-77
2022/04/19 06:34:48;;;;;;;5.50;3.10;;;6.80;94.30;;;;;;4970484;28;20210;-77
2022/04/19 06:37:14;;;;;;;6.10;3.00;;;6.90;94.20;;;;;;4972091;28;20808;-77
2022/04/19 06:39:41;;;;;;;4.40;3.00;;;6.90;94.00;;;;;;4973053;28;20426;-77
2022/04/19 06:42:07;;;;;;;4.93;2.93;;;7.00;93.60;;;;;;4972300;28;20178;-77
2022/04/19 06:44:32;;;;;;;6.73;3.30;;;7.10;93.50;;;;;;4982689;28;20811;-77
2022/04/19 06:46:58;;;;;;;5.23;3.03;;;7.10;93.50;;;;;;4989656;28;20425;-77
2022/04/19 06:49:24;;;;;;;5.43;3.20;;;7.20;93.70;;;;;;4982244;28;20269;-78
2022/04/19 06:51:50;;;;;;;6.67;3.50;;;7.30;93.20;;;;;;4971560;28;20194;-78
2022/04/19 06:54:16;;;;;;;4.83;3.27;;;7.30;92.80;;;;;;4970282;28;20289;-77
2022/04/19 06:56:45;;;;;;;5.47;3.57;;;7.40;92.80;;;;;;5002897;28;20422;-77
2022/04/19 06:59:10;;;;;;;9.60;3.60;;;7.50;92.80;;;;;;5003431;28;20425;-77
2022/04/19 07:01:38;;;;;;;7.63;3.33;;;7.60;92.60;;;;;;4972846;28;20469;-77
2022/04/19 07:04:04;;;;;;;5.27;2.83;;;7.60;92.20;;;;;;5010573;28;20202;-78
2022/04/19 07:06:29;;;;;;;7.87;3.30;;;7.70;92.10;;;;;;4976002;28;20417;-79
2022/04/19 07:08:55;;;;;;;6.00;3.17;;;7.70;92.30;;;;;;4976541;28;20802;-77
2022/04/19 07:11:20;;;;;;;4.20;3.33;;;7.80;91.60;;;;;;4975250;28;20288;-78
2022/04/19 07:13:46;;;;;;;7.10;3.30;;;7.80;91.00;;;;;;4976318;28;20179;-78
2022/04/19 07:16:12;;;;;;;6.20;3.40;;;7.80;91.20;;;;;;4976071;28;20230;-78
2022/04/19 07:18:37;;;;;;;9.13;3.43;;;7.90;91.30;;;;;;4976454;28;20178;-78
2022/04/19 07:26:47;;;;;;;5.33;3.10;;;8.10;91.10;;;;;;4978072;28;20401;-78
2022/04/19 07:29:15;;;;;;;7.80;3.23;;;8.20;91.50;;;;;;4976610;28;20417;-78
2022/04/19 07:31:46;;;;;;;8.10;3.83;;;8.30;91.00;;;;;;4978226;28;20438;-78
2022/04/19 07:34:12;;;;;;;5.03;2.97;;;8.40;90.90;;;;;;4978183;28;20532;-79
2022/04/19 07:36:41;;;;;;;8.13;3.57;;;8.50;90.30;;;;;;4977896;28;20437;-79
2022/04/19 07:39:08;;;;;;;7.07;4.00;;;8.60;90.60;;;;;;4977327;28;20924;-79
2022/04/19 07:41:40;;;;;;;5.47;3.40;;;8.70;90.20;;;;;;4977712;28;20418;-80
2022/04/19 07:44:08;;;;;;;8.97;3.83;;;8.80;89.80;;;;;;4978990;28;20441;-79
2022/04/19 07:46:34;;;;;;;7.47;3.73;;;8.90;89.40;;;;;;4978293;28;20421;-80
2022/04/19 07:49:01;;;;;;;9.80;4.00;;;9.10;89.70;;;;;;4978042;28;20416;-78
2022/04/19 07:51:26;;;;;;;8.90;3.83;;;9.20;88.30;;;;;;4978151;28;20434;-80
2022/04/19 07:53:52;;;;;;;4.00;3.23;;;9.20;88.10;;;;;;4979744;28;20431;-79
2022/04/19 07:56:19;;;;;;;7.30;3.80;;;9.30;88.30;;;;;;4978116;28;20205;-80
2022/04/19 07:58:47;;;;;;;7.93;3.70;;;9.40;86.70;;;;;;4979311;28;20420;-79
2022/04/19 08:01:14;;;;;;;5.67;3.50;;;9.50;87.60;;;;;;4978557;28;20939;-80
2022/04/19 08:03:40;;;;;;;9.07;3.73;;;9.60;86.80;;;;;;4979349;28;20721;-80
2022/04/19 08:06:06;;;;;;;7.50;4.40;;;9.60;86.20;;;;;;4980620;28;20414;-82
2022/04/19 08:08:32;;;;;;;7.63;3.80;;;9.70;85.90;;;;;;4997992;28;20796;-81
2022/04/19 08:10:57;;;;;;;8.33;4.13;;;9.80;85.30;;;;;;4984961;28;20174;-81
2022/04/19 08:13:24;;;;;;;4.60;3.40;;;9.90;85.20;;;;;;4977332;28;20532;-81
2022/04/19 08:15:49;;;;;;;9.83;4.07;;;9.90;85.80;;;;;;4979203;28;20552;-80
2022/04/19 08:18:16;;;;;;;4.80;2.90;;;10.00;84.70;;;;;;4977343;28;20454;-81
2022/04/19 08:20:42;;;;;;;7.70;4.50;;;10.00;84.50;;;;;;4976604;28;20260;-81
2022/04/19 08:23:08;;;;;;;4.43;3.23;;;10.10;84.80;;;;;;4976422;28;20413;-81
2022/04/19 08:25:35;;;;;;;8.73;3.70;;;10.30;83.10;;;;;;4975758;28;20525;-81
2022/04/19 08:28:00;;;;;;;7.43;3.37;;;10.40;83.40;;;;;;4976067;28;20795;-80
2022/04/19 08:30:26;;;;;;;8.17;3.20;;;10.50;82.40;;;;;;4975790;28;20430;-80
2022/04/19 08:32:52;;;;;;;8.00;3.97;;;10.60;82.90;;;;;;4973947;28;20213;-81
2022/04/19 08:35:18;;;;;;;6.80;4.00;;;10.70;81.20;;;;;;4976351;28;20290;-81
2022/04/19 08:37:44;;;;;;;5.90;3.60;;;10.70;80.20;;;;;;4976460;28;20185;-81
2022/04/19 08:40:11;;;;;;;12.80;3.93;;;10.70;79.60;;;;;;4974585;28;20963;-81
2022/04/19 08:42:40;;;;;;;9.40;4.30;;;10.70;80.10;;;;;;4974754;28;20847;-80
2022/04/19 08:45:07;;;;;;;6.00;3.57;;;10.90;80.30;;;;;;4974141;28;20441;-81
2022/04/19 08:47:44;;;;;;;9.43;3.70;;;11.00;79.10;;;;;;4974447;28;20923;-81
2022/04/19 08:50:12;;;;;;;7.20;3.70;;;11.10;78.40;;;;;;4974511;28;20433;-80
2022/04/19 08:52:39;;;;;;;8.33;4.10;;;11.30;80.00;;;;;;4973847;28;20426;-81
2022/04/19 08:58:06;;;;;;;8.40;3.67;;;11.40;78.60;;;;;;4934756;29;20427;-81
2022/04/19 09:00:32;;;;;;;7.30;4.33;;;11.50;77.70;;;;;;4962513;28;20501;-81
2022/04/19 09:02:58;;;;;;;23.03;4.73;;;11.50;77.20;;;;;;4974973;28;20270;-81
2022/04/19 09:05:29;;;;;;;8.50;4.43;;;11.60;78.80;;;;;;4975328;28;20292;-80
2022/04/19 09:07:57;;;;;;;7.27;3.90;;;11.60;77.70;;;;;;4975141;28;20433;-81
2022/04/19 09:10:29;;;;;;;9.53;4.63;;;11.80;78.10;;;;;;4976359;28;20418;-80
2022/04/19 09:13:05;;;;;;;9.73;4.37;;;11.80;77.20;;;;;;5007694;28;20510;-81
2022/04/19 09:15:40;;;;;;;7.50;4.40;;;11.80;77.20;;;;;;4975131;28;20461;-80
2022/04/19 09:18:15;;;;;;;10.43;4.70;;;11.80;76.30;;;;;;4976119;28;20888;-80
2022/04/19 09:20:41;;;;;;;14.00;5.10;;;12.00;77.30;;;;;;5007616;28;20513;-80
2022/04/19 09:23:08;;;;;;;8.63;4.30;;;12.10;77.60;;;;;;4974166;28;20830;-80
2022/04/19 09:25:35;;;;;;;8.07;4.30;;;12.20;76.80;;;;;;4973969;28;20441;-80
2022/04/19 09:28:03;;;;;;;12.03;4.73;;;12.20;76.10;;;;;;4975685;28;20422;-81
2022/04/19 09:30:32;;;;;;;7.97;4.30;;;12.30;77.20;;;;;;4975587;28;20816;-82
2022/04/19 09:33:00;;;;;;;11.40;4.70;;;12.30;76.70;;;;;;4975582;28;20422;-82
2022/04/19 09:35:33;;;;;;;10.00;4.80;;;12.40;75.00;;;;;;4976562;28;20482;-82
2022/04/19 09:37:59;;;;;;;10.50;4.23;;;12.50;76.30;;;;;;4972873;28;20957;-82
2022/04/19 09:40:29;;;;;;;10.27;5.00;;;12.70;75.10;;;;;;4988206;28;20407;-81
2022/04/19 09:42:55;;;;;;;8.87;4.40;;;12.70;75.30;;;;;;4972076;28;20171;-81
2022/04/19 09:45:23;;;;;;;11.60;4.60;;;12.80;75.30;;;;;;4987865;28;20449;-81
2022/04/19 09:47:52;;;;;;;9.43;4.17;;;12.90;75.90;;;;;;4987665;28;20179;-81
2022/04/19 09:50:18;;;;;;;7.47;4.27;;;12.90;74.80;;;;;;4988011;28;20423;-81
2022/04/19 09:52:50;;;;;;;8.80;4.53;;;13.00;73.60;;;;;;4987745;28;20430;-81
2022/04/19 09:55:16;;;;;;;6.43;3.80;;;13.10;74.30;;;;;;4987801;28;20493;-81
2022/04/19 09:57:47;;;;;;;9.40;4.67;;;13.10;73.50;;;;;;4987489;28;20486;-81
2022/04/19 10:00:14;;;;;;;8.13;4.17;;;13.20;73.10;;;;;;4988860;28;21112;-81
2022/04/19 10:08:11;;;;;;;20.20;4.50;;;13.30;74.80;;;;;;4957902;29;20422;-82
2022/04/19 10:10:38;;;;;;;8.30;3.83;;;13.50;74.00;;;;;;4987871;28;20944;-82
2022/04/19 10:13:05;;;;;;;6.43;4.00;;;13.40;72.40;;;;;;4988190;28;20441;-81
2022/04/19 10:15:37;;;;;;;9.50;4.10;;;13.40;73.40;;;;;;4955768;28;20498;-82
2022/04/19 10:18:06;;;;;;;7.70;3.60;;;13.40;72.50;;;;;;4987083;28;20430;-81
2022/04/19 10:20:35;;;;;;;7.83;3.63;;;13.40;72.50;;;;;;4987877;28;20427;-82
2022/04/19 10:23:09;;;;;;;8.20;3.70;;;13.30;71.60;;;;;;4987437;28;20419;-81
2022/04/19 10:25:44;;;;;;;6.20;3.77;;;13.40;72.10;;;;;;4957028;28;20449;-81
2022/04/19 10:28:15;;;;;;;8.87;4.07;;;13.50;73.20;;;;;;4955943;28;20509;-81
2022/04/19 10:30:52;;;;;;;7.40;3.73;;;13.80;74.60;;;;;;4988053;28;20601;-82
2022/04/19 10:33:48;;;;;;;8.13;4.17;;;13.90;71.60;;;;;;4988552;28;20422;-82
2022/04/19 10:36:21;;;;;;;5.97;3.70;;;14.10;72.00;;;;;;4975272;28;20533;-82
2022/04/19 10:39:11;;;;;;;9.40;4.07;;;14.20;71.30;;;;;;4979148;28;20432;-82
2022/04/19 10:41:52;;;;;;;11.27;4.43;;;14.30;71.70;;;;;;4975522;28;20432;-82
2022/04/19 10:44:35;;;;;;;5.80;3.27;;;14.40;70.90;;;;;;4994869;28;20452;-82
2022/04/19 10:47:13;;;;;;;6.87;3.87;;;14.10;69.60;;;;;;4979436;28;20806;-81
2022/04/19 10:50:04;;;;;;;8.43;3.57;;;14.20;71.80;;;;;;4978818;28;20408;-81
2022/04/19 10:52:36;;;;;;;8.70;4.50;;;14.40;72.20;;;;;;4978651;28;20418;-83
2022/04/19 10:55:07;;;;;;;7.80;4.03;;;14.50;72.70;;;;;;4994537;28;20565;-81
2022/04/19 11:00:34;;;;;;;9.57;4.17;;;14.70;72.60;;;;;;4980903;28;20400;-82
2022/04/19 11:03:01;;;;;;;5.53;3.23;;;14.80;70.30;;;;;;4994716;28;20466;-81
2022/04/19 11:05:34;;;;;;;6.83;3.60;;;14.90;71.10;;;;;;4978378;28;20504;-82
2022/04/19 11:08:25;;;;;;;7.57;3.80;;;15.00;69.60;;;;;;4994523;28;20422;-81
2022/04/19 11:11:02;;;;;;;7.50;3.60;;;15.00;71.10;;;;;;4993983;28;20439;-82
2022/04/19 11:13:35;;;;;;;7.00;3.47;;;15.10;69.60;;;;;;4995981;28;20478;-81
2022/04/19 11:16:03;;;;;;;10.47;3.30;;;15.30;70.40;;;;;;5009707;28;20528;-82
2022/04/19 11:18:34;;;;;;;5.70;3.47;;;15.40;69.90;;;;;;4977841;28;20471;-81
2022/04/19 11:21:03;;;;;;;7.83;3.90;;;15.30;69.50;;;;;;5011061;28;20816;-83
2022/04/19 11:23:40;;;;;;;6.30;3.60;;;15.30;69.20;;;;;;4978642;28;20448;-81
2022/04/19 11:26:08;;;;;;;8.70;3.33;;;15.50;71.00;;;;;;4976513;28;20434;-83
2022/04/19 11:28:34;;;;;;;6.93;2.70;;;15.60;69.00;;;;;;4983607;28;20440;-82
2022/04/19 11:31:00;;;;;;;5.50;3.83;;;15.60;69.80;;;;;;4980320;28;20426;-82
2022/04/19 11:33:28;;;;;;;6.13;3.17;;;15.70;69.40;;;;;;4994487;28;20811;-82
2022/04/19 11:36:13;;;;;;;5.50;3.80;;;15.80;70.30;;;;;;4986881;28;20637;-82
2022/04/19 11:38:45;;;;;;;6.80;2.87;;;15.90;68.30;;;;;;4975345;28;21023;-81
2022/04/19 11:46:45;;;;;;;7.60;3.60;;;15.70;68.00;;;;;;4975416;28;20400;-82
2022/04/19 11:49:19;;;;;;;5.80;3.30;;;15.80;69.40;;;;;;4975553;28;20415;-82
2022/04/19 11:51:56;;;;;;;5.20;3.57;;;15.90;69.10;;;;;;4990667;28;20200;-82
2022/04/19 11:54:24;;;;;;;6.40;3.80;;;16.20;70.00;;;;;;4974366;28;20722;-81
2022/04/19 11:56:58;;;;;;;6.57;3.40;;;16.20;67.90;;;;;;4990780;28;20569;-82
2022/04/19 11:59:34;;;;;;;9.33;2.67;;;16.20;69.10;;;;;;4976197;28;20418;-82
2022/04/19 12:02:01;;;;;;;5.07;3.13;;;16.10;67.80;;;;;;4977378;28;20492;-81
2022/04/19 12:04:28;;;;;;;5.20;3.10;;;16.30;68.40;;;;;;4976802;28;20448;-82
2022/04/19 12:07:01;;;;;;;4.73;3.10;;;16.00;67.00;;;;;;4976524;28;20452;-83
2022/04/19 12:09:28;;;;;;;6.30;3.63;;;15.50;67.20;;;;;;4975663;28;20803;-82
2022/04/19 12:11:54;;;;;;;6.80;2.90;;;15.10;67.80;;;;;;4976119;28;20826;-82
2022/04/19 12:14:38;;;;;;;4.63;2.97;;;15.40;69.20;;;;;;4975907;28;20434;-82
2022/04/19 12:17:06;;;;;;;4.00;2.70;;;15.90;68.90;;;;;;4976390;28;20421;-83
2022/04/19 12:19:40;;;;;;;5.47;3.17;;;15.90;67.50;;;;;;4977266;28;20414;-82
2022/04/19 12:22:25;;;;;;;4.50;2.50;;;15.70;66.90;;;;;;4976548;28;20533;-82
2022/04/19 12:24:58;;;;;;;5.37;2.73;;;15.90;67.40;;;;;;4976048;28;20529;-82
2022/04/19 12:27:34;;;;;;;3.80;2.57;;;16.50;67.90;;;;;;4976091;28;20434;-82
2022/04/19 12:30:08;;;;;;;5.70;2.97;;;16.90;67.60;;;;;;4976022;28;20425;-82
2022/04/19 12:32:52;;;;;;;2.63;2.10;;;17.20;65.50;;;;;;4975856;28;20915;-83
2022/04/19 12:35:34;;;;;;;5.30;2.40;;;17.50;65.90;;;;;;4991922;28;20461;-82
2022/04/19 12:38:16;;;;;;;3.17;2.40;;;17.20;65.50;;;;;;4975668;28;20625;-83
2022/04/19 12:40:43;;;;;;;3.77;2.23;;;16.90;66.00;;;;;;4976869;28;20763;-82
2022/04/19 12:43:10;;;;;;;3.87;2.37;;;17.00;65.40;;;;;;4975650;28;20835;-82
2022/04/19 12:45:38;;;;;;;6.10;2.87;;;17.30;65.10;;;;;;4975111;28;20466;-81
2022/04/19 12:48:06;;;;;;;2.10;1.97;;;17.60;64.90;;;;;;4991721;28;20455;-83
2022/04/19 12:50:31;;;;;;;3.27;2.40;;;17.50;63.80;;;;;;4975096;28;20723;-82
2022/04/19 12:52:58;;;;;;;7.40;2.30;;;17.60;65.40;;;;;;4975115;28;20429;-82
2022/04/19 12:55:31;;;;;;;5.20;2.60;;;17.80;64.70;;;;;;4975236;28;20305;-84
2022/04/19 12:58:08;;;;;;;4.57;2.40;;;17.70;63.70;;;;;;4975017;28;20410;-83
2022/04/19 13:00:35;;;;;;;4.33;2.23;;;17.40;64.60;;;;;;4975640;28;20843;-83
2022/04/19 13:03:01;;;;;;;4.93;2.60;;;17.40;65.10;;;;;;4974684;28;20512;-83
2022/04/19 13:12:16;;;;;;;3.00;2.00;;;17.30;64.40;;;;;;4974937;28;20772;-83
2022/04/19 13:13:41;;;;;;;4.53;2.00;;;17.10;63.90;;;;;;4977123;28;20417;-83
2022/04/19 13:16:07;;;;;;;3.30;1.83;;;16.60;64.70;;;;;;4975243;28;20840;-83
2022/04/19 13:18:32;;;;;;;3.30;2.07;;;16.20;64.60;;;;;;4975257;28;20183;-83
2022/04/19 13:20:58;;;;;;;2.60;2.20;;;16.40;66.00;;;;;;4976488;28;20261;-83
2022/04/19 13:23:24;;;;;;;3.23;1.70;;;16.70;65.60;;;;;;4975336;28;20178;-83
2022/04/19 13:25:49;;;;;;;2.27;1.70;;;17.20;64.50;;;;;;4974963;28;20620;-82
2022/04/19 13:28:15;;;;;;;6.70;2.57;;;17.40;64.70;;;;;;4974803;28;20254;-83
2022/04/19 13:30:43;;;;;;;3.37;2.03;;;17.40;63.80;;;;;;4976987;28;20621;-83
2022/04/19 13:33:09;;;;;;;3.90;1.90;;;16.90;63.70;;;;;;4976631;28;20181;-82
2022/04/19 13:35:34;;;;;;;3.87;2.03;;;16.40;65.20;;;;;;4974780;28;20508;-82
2022/04/19 13:40:44;;;;;;;3.13;2.00;;;15.60;66.30;;;;;;4976643;28;20716;-82
2022/04/19 13:43:10;;;;;;;2.90;1.90;;;15.30;67.70;;;;;;4974423;28;20480;-82
2022/04/19 13:45:36;;;;;;;5.63;2.00;;;15.10;68.20;;;;;;4975721;28;20221;-83